sensor_id;sensor_type;location;lat;lon;timestamp;P1;durP1;ratioP1;P2;durP2;ratioP2
25123;SDS011;13104;51.030;4.686;2023-03-13T00:01:21;23.90;;;4.00;;
25123;SDS011;13104;51.030;4.686;2023-03-13T00:03:47;19.70;;;4.80;;
25123;SDS011;13104;51.030;4.686;2023-03-13T00:06:16;24.27;;;4.47;;
25123;SDS011;13104;51.030;4.686;2023-03-13T00:08:42;18.80;;;4.47;;
25123;SDS011;13104;51.030;4.686;2023-03-13T00:11:10;24.98;;;4.82;;
25123;SDS011;13104;51.030;4.686;2023-03-13T00:13:36;25.15;;;4.55;;
25123;SDS011;13104;51.030;4.686;2023-03-13T00:16:07;20.45;;;4.40;;
25123;SDS011;13104;51.030;4.686;2023-03-13T00:18:34;21.52;;;4.47;;
25123;SDS011;13104;51.030;4.686;2023-03-13T00:21:01;23.90;;;4.65;;
25123;SDS011;13104;51.030;4.686;2023-03-13T00:23:28;22.02;;;4.80;;
25123;SDS011;13104;51.030;4.686;2023-03-13T00:25:55;23.15;;;4.85;;
25123;SDS011;13104;51.030;4.686;2023-03-13T00:28:22;21.92;;;4.30;;
25123;SDS011;13104;51.030;4.686;2023-03-13T00:30:49;19.50;;;4.43;;
25123;SDS011;13104;51.030;4.686;2023-03-13T00:33:15;19.80;;;4.65;;
25123;SDS011;13104;51.030;4.686;2023-03-13T00:35:41;15.77;;;4.63;;
25123;SDS011;13104;51.030;4.686;2023-03-13T00:38:07;15.70;;;4.38;;
25123;SDS011;13104;51.030;4.686;2023-03-13T00:40:33;17.48;;;4.00;;
25123;SDS011;13104;51.030;4.686;2023-03-13T00:43:00;12.73;;;3.08;;
25123;SDS011;13104;51.030;4.686;2023-03-13T00:45:27;20.23;;;3.92;;
25123;SDS011;13104;51.030;4.686;2023-03-13T00:47:53;21.27;;;4.03;;
25123;SDS011;13104;51.030;4.686;2023-03-13T00:50:19;12.20;;;3.50;;
25123;SDS011;13104;51.030;4.686;2023-03-13T00:52:46;11.38;;;3.78;;
25123;SDS011;13104;51.030;4.686;2023-03-13T00:55:12;18.83;;;4.03;;
25123;SDS011;13104;51.030;4.686;2023-03-13T00:57:38;13.35;;;3.47;;
25123;SDS011;13104;51.030;4.686;2023-03-13T01:00:04;9.43;;;3.30;;
25123;SDS011;13104;51.030;4.686;2023-03-13T01:02:31;12.25;;;3.75;;
25123;SDS011;13104;51.030;4.686;2023-03-13T01:04:57;10.93;;;3.13;;
25123;SDS011;13104;51.030;4.686;2023-03-13T01:07:23;8.82;;;3.40;;
25123;SDS011;13104;51.030;4.686;2023-03-13T01:09:52;12.00;;;3.10;;
25123;SDS011;13104;51.030;4.686;2023-03-13T01:12:18;17.33;;;3.10;;
25123;SDS011;13104;51.030;4.686;2023-03-13T01:14:48;12.18;;;3.22;;
25123;SDS011;13104;51.030;4.686;2023-03-13T01:17:14;7.88;;;2.65;;
25123;SDS011;13104;51.030;4.686;2023-03-13T01:19:40;10.55;;;3.05;;
25123;SDS011;13104;51.030;4.686;2023-03-13T01:22:07;10.45;;;2.80;;
25123;SDS011;13104;51.030;4.686;2023-03-13T01:24:35;8.20;;;3.20;;
25123;SDS011;13104;51.030;4.686;2023-03-13T01:27:01;10.65;;;3.22;;
25123;SDS011;13104;51.030;4.686;2023-03-13T01:29:27;14.55;;;4.10;;
25123;SDS011;13104;51.030;4.686;2023-03-13T01:31:53;13.20;;;3.80;;
25123;SDS011;13104;51.030;4.686;2023-03-13T01:34:20;8.77;;;3.78;;
25123;SDS011;13104;51.030;4.686;2023-03-13T01:36:46;11.73;;;4.10;;
25123;SDS011;13104;51.030;4.686;2023-03-13T01:39:14;11.52;;;4.03;;
25123;SDS011;13104;51.030;4.686;2023-03-13T01:41:40;8.90;;;4.78;;
25123;SDS011;13104;51.030;4.686;2023-03-13T01:44:21;13.98;;;5.30;;
25123;SDS011;13104;51.030;4.686;2023-03-13T01:46:47;11.15;;;5.20;;
25123;SDS011;13104;51.030;4.686;2023-03-13T01:49:17;10.55;;;4.90;;
25123;SDS011;13104;51.030;4.686;2023-03-13T01:51:45;13.63;;;5.88;;
25123;SDS011;13104;51.030;4.686;2023-03-13T01:54:19;16.77;;;5.22;;
25123;SDS011;13104;51.030;4.686;2023-03-13T01:56:57;17.75;;;6.10;;
25123;SDS011;13104;51.030;4.686;2023-03-13T01:59:26;14.10;;;7.07;;
25123;SDS011;13104;51.030;4.686;2023-03-13T02:01:56;12.35;;;6.78;;
25123;SDS011;13104;51.030;4.686;2023-03-13T02:04:23;12.77;;;6.50;;
25123;SDS011;13104;51.030;4.686;2023-03-13T02:06:51;14.63;;;7.07;;
25123;SDS011;13104;51.030;4.686;2023-03-13T02:09:21;10.88;;;6.45;;
25123;SDS011;13104;51.030;4.686;2023-03-13T02:14:16;11.73;;;6.68;;
25123;SDS011;13104;51.030;4.686;2023-03-13T02:16:43;12.80;;;6.57;;
25123;SDS011;13104;51.030;4.686;2023-03-13T02:19:23;12.10;;;6.20;;
25123;SDS011;13104;51.030;4.686;2023-03-13T02:27:06;10.10;;;5.68;;
25123;SDS011;13104;51.030;4.686;2023-03-13T02:29:33;10.88;;;5.10;;
25123;SDS011;13104;51.030;4.686;2023-03-13T02:31:59;8.60;;;5.15;;
25123;SDS011;13104;51.030;4.686;2023-03-13T02:34:27;8.18;;;4.90;;
25123;SDS011;13104;51.030;4.686;2023-03-13T02:36:54;11.80;;;5.72;;
25123;SDS011;13104;51.030;4.686;2023-03-13T02:39:22;11.75;;;5.55;;
25123;SDS011;13104;51.030;4.686;2023-03-13T02:41:49;11.15;;;5.22;;
25123;SDS011;13104;51.030;4.686;2023-03-13T02:44:16;8.32;;;5.38;;
25123;SDS011;13104;51.030;4.686;2023-03-13T02:46:46;11.23;;;6.45;;
25123;SDS011;13104;51.030;4.686;2023-03-13T02:49:22;11.02;;;5.93;;
25123;SDS011;13104;51.030;4.686;2023-03-13T02:51:49;14.88;;;6.13;;
25123;SDS011;13104;51.030;4.686;2023-03-13T02:54:17;8.10;;;5.35;;
25123;SDS011;13104;51.030;4.686;2023-03-13T02:56:44;10.95;;;6.05;;
25123;SDS011;13104;51.030;4.686;2023-03-13T02:59:13;14.43;;;6.65;;
25123;SDS011;13104;51.030;4.686;2023-03-13T03:01:39;8.50;;;5.47;;
25123;SDS011;13104;51.030;4.686;2023-03-13T03:04:05;18.45;;;5.68;;
25123;SDS011;13104;51.030;4.686;2023-03-13T03:06:31;11.02;;;5.95;;
25123;SDS011;13104;51.030;4.686;2023-03-13T03:08:58;8.57;;;5.82;;
25123;SDS011;13104;51.030;4.686;2023-03-13T03:11:28;9.48;;;5.18;;
25123;SDS011;13104;51.030;4.686;2023-03-13T03:13:54;9.00;;;5.20;;
25123;SDS011;13104;51.030;4.686;2023-03-13T03:16:23;11.52;;;5.07;;
25123;SDS011;13104;51.030;4.686;2023-03-13T03:18:49;8.75;;;4.63;;
25123;SDS011;13104;51.030;4.686;2023-03-13T03:21:20;8.02;;;4.90;;
25123;SDS011;13104;51.030;4.686;2023-03-13T03:23:48;7.20;;;4.32;;
25123;SDS011;13104;51.030;4.686;2023-03-13T03:26:17;7.57;;;4.25;;
25123;SDS011;13104;51.030;4.686;2023-03-13T03:28:46;7.22;;;3.70;;
25123;SDS011;13104;51.030;4.686;2023-03-13T03:31:13;11.50;;;4.18;;
25123;SDS011;13104;51.030;4.686;2023-03-13T03:33:39;8.07;;;3.85;;
25123;SDS011;13104;51.030;4.686;2023-03-13T03:36:07;6.13;;;3.83;;
25123;SDS011;13104;51.030;4.686;2023-03-13T03:38:34;6.07;;;3.55;;
25123;SDS011;13104;51.030;4.686;2023-03-13T03:41:01;7.75;;;3.65;;
25123;SDS011;13104;51.030;4.686;2023-03-13T03:43:27;7.65;;;4.30;;
25123;SDS011;13104;51.030;4.686;2023-03-13T03:45:53;4.03;;;3.03;;
25123;SDS011;13104;51.030;4.686;2023-03-13T03:48:20;5.88;;;3.45;;
25123;SDS011;13104;51.030;4.686;2023-03-13T03:50:46;5.88;;;3.25;;
25123;SDS011;13104;51.030;4.686;2023-03-13T03:53:12;7.30;;;3.63;;
25123;SDS011;13104;51.030;4.686;2023-03-13T03:55:38;5.55;;;3.25;;
25123;SDS011;13104;51.030;4.686;2023-03-13T03:58:05;6.70;;;3.50;;
25123;SDS011;13104;51.030;4.686;2023-03-13T04:00:32;7.97;;;3.13;;
25123;SDS011;13104;51.030;4.686;2023-03-13T04:02:58;6.13;;;3.13;;
25123;SDS011;13104;51.030;4.686;2023-03-13T04:05:25;5.38;;;3.08;;
25123;SDS011;13104;51.030;4.686;2023-03-13T04:07:51;8.35;;;3.13;;
25123;SDS011;13104;51.030;4.686;2023-03-13T04:10:17;6.03;;;2.95;;
25123;SDS011;13104;51.030;4.686;2023-03-13T04:12:43;9.23;;;3.45;;
25123;SDS011;13104;51.030;4.686;2023-03-13T04:15:10;9.48;;;3.20;;
25123;SDS011;13104;51.030;4.686;2023-03-13T04:17:36;5.65;;;3.13;;
25123;SDS011;13104;51.030;4.686;2023-03-13T04:20:05;8.30;;;2.85;;
25123;SDS011;13104;51.030;4.686;2023-03-13T04:22:32;6.25;;;3.05;;
25123;SDS011;13104;51.030;4.686;2023-03-13T04:24:59;4.72;;;2.75;;
25123;SDS011;13104;51.030;4.686;2023-03-13T04:27:28;11.93;;;3.45;;
25123;SDS011;13104;51.030;4.686;2023-03-13T04:29:58;6.93;;;3.13;;
25123;SDS011;13104;51.030;4.686;2023-03-13T04:32:24;6.30;;;2.92;;
25123;SDS011;13104;51.030;4.686;2023-03-13T04:34:50;7.88;;;2.97;;
25123;SDS011;13104;51.030;4.686;2023-03-13T04:37:17;5.22;;;3.20;;
25123;SDS011;13104;51.030;4.686;2023-03-13T04:39:43;6.28;;;2.60;;
25123;SDS011;13104;51.030;4.686;2023-03-13T04:42:11;8.10;;;3.10;;
25123;SDS011;13104;51.030;4.686;2023-03-13T04:44:37;7.40;;;3.08;;
25123;SDS011;13104;51.030;4.686;2023-03-13T04:47:04;7.68;;;2.85;;
25123;SDS011;13104;51.030;4.686;2023-03-13T04:49:30;11.35;;;2.95;;
25123;SDS011;13104;51.030;4.686;2023-03-13T04:51:56;9.05;;;3.10;;
25123;SDS011;13104;51.030;4.686;2023-03-13T04:54:22;8.00;;;3.22;;
25123;SDS011;13104;51.030;4.686;2023-03-13T04:56:50;7.65;;;3.05;;
25123;SDS011;13104;51.030;4.686;2023-03-13T04:59:16;7.95;;;2.90;;
25123;SDS011;13104;51.030;4.686;2023-03-13T05:01:43;10.88;;;3.08;;
25123;SDS011;13104;51.030;4.686;2023-03-13T05:04:09;9.75;;;3.30;;
25123;SDS011;13104;51.030;4.686;2023-03-13T05:06:36;9.98;;;2.88;;
25123;SDS011;13104;51.030;4.686;2023-03-13T05:09:04;6.43;;;3.15;;
25123;SDS011;13104;51.030;4.686;2023-03-13T05:11:31;8.95;;;2.72;;
25123;SDS011;13104;51.030;4.686;2023-03-13T05:13:57;8.45;;;3.00;;
25123;SDS011;13104;51.030;4.686;2023-03-13T05:16:23;10.68;;;3.65;;
25123;SDS011;13104;51.030;4.686;2023-03-13T05:18:49;11.18;;;3.17;;
25123;SDS011;13104;51.030;4.686;2023-03-13T05:21:16;8.60;;;3.17;;
25123;SDS011;13104;51.030;4.686;2023-03-13T05:23:42;8.38;;;2.75;;
25123;SDS011;13104;51.030;4.686;2023-03-13T05:26:09;10.93;;;3.08;;
25123;SDS011;13104;51.030;4.686;2023-03-13T05:28:35;11.63;;;3.30;;
25123;SDS011;13104;51.030;4.686;2023-03-13T05:31:02;8.75;;;2.67;;
25123;SDS011;13104;51.030;4.686;2023-03-13T05:33:29;11.10;;;3.30;;
25123;SDS011;13104;51.030;4.686;2023-03-13T05:35:56;9.45;;;2.80;;
25123;SDS011;13104;51.030;4.686;2023-03-13T05:38:22;14.00;;;3.20;;
25123;SDS011;13104;51.030;4.686;2023-03-13T05:40:48;9.60;;;3.40;;
25123;SDS011;13104;51.030;4.686;2023-03-13T05:43:14;11.70;;;3.13;;
25123;SDS011;13104;51.030;4.686;2023-03-13T05:45:41;11.57;;;3.30;;
25123;SDS011;13104;51.030;4.686;2023-03-13T05:48:12;14.18;;;3.42;;
25123;SDS011;13104;51.030;4.686;2023-03-13T05:50:39;14.10;;;3.60;;
25123;SDS011;13104;51.030;4.686;2023-03-13T05:53:07;10.93;;;2.97;;
25123;SDS011;13104;51.030;4.686;2023-03-13T05:55:37;10.30;;;3.10;;
25123;SDS011;13104;51.030;4.686;2023-03-13T05:58:03;17.25;;;3.20;;
25123;SDS011;13104;51.030;4.686;2023-03-13T06:00:29;13.02;;;3.00;;
25123;SDS011;13104;51.030;4.686;2023-03-13T06:02:56;7.85;;;3.28;;
25123;SDS011;13104;51.030;4.686;2023-03-13T06:05:22;15.55;;;3.17;;
25123;SDS011;13104;51.030;4.686;2023-03-13T06:07:51;14.52;;;3.22;;
25123;SDS011;13104;51.030;4.686;2023-03-13T06:10:36;13.10;;;3.55;;
25123;SDS011;13104;51.030;4.686;2023-03-13T06:13:03;12.20;;;3.13;;
25123;SDS011;13104;51.030;4.686;2023-03-13T06:15:29;12.35;;;3.90;;
25123;SDS011;13104;51.030;4.686;2023-03-13T06:17:55;12.80;;;2.95;;
25123;SDS011;13104;51.030;4.686;2023-03-13T06:20:21;12.57;;;3.42;;
25123;SDS011;13104;51.030;4.686;2023-03-13T06:22:48;12.75;;;3.03;;
25123;SDS011;13104;51.030;4.686;2023-03-13T06:25:14;10.95;;;2.95;;
25123;SDS011;13104;51.030;4.686;2023-03-13T06:27:41;9.75;;;3.47;;
25123;SDS011;13104;51.030;4.686;2023-03-13T06:30:08;12.25;;;3.20;;
25123;SDS011;13104;51.030;4.686;2023-03-13T06:32:34;12.80;;;3.42;;
25123;SDS011;13104;51.030;4.686;2023-03-13T06:35:01;10.07;;;3.03;;
25123;SDS011;13104;51.030;4.686;2023-03-13T06:37:28;9.77;;;3.50;;
25123;SDS011;13104;51.030;4.686;2023-03-13T06:39:54;9.88;;;3.20;;
25123;SDS011;13104;51.030;4.686;2023-03-13T06:42:21;11.77;;;2.95;;
25123;SDS011;13104;51.030;4.686;2023-03-13T06:44:47;9.00;;;3.42;;
25123;SDS011;13104;51.030;4.686;2023-03-13T06:47:13;13.77;;;3.40;;
25123;SDS011;13104;51.030;4.686;2023-03-13T06:49:39;9.20;;;3.30;;
25123;SDS011;13104;51.030;4.686;2023-03-13T06:52:06;18.20;;;3.72;;
25123;SDS011;13104;51.030;4.686;2023-03-13T06:54:32;10.80;;;3.35;;
25123;SDS011;13104;51.030;4.686;2023-03-13T06:56:58;12.63;;;3.58;;
25123;SDS011;13104;51.030;4.686;2023-03-13T06:59:24;15.93;;;3.75;;
25123;SDS011;13104;51.030;4.686;2023-03-13T07:01:51;14.90;;;3.60;;
25123;SDS011;13104;51.030;4.686;2023-03-13T07:04:18;14.35;;;3.15;;
25123;SDS011;13104;51.030;4.686;2023-03-13T07:06:47;11.75;;;3.67;;
25123;SDS011;13104;51.030;4.686;2023-03-13T07:09:27;13.20;;;3.40;;
25123;SDS011;13104;51.030;4.686;2023-03-13T07:11:58;12.95;;;3.72;;
25123;SDS011;13104;51.030;4.686;2023-03-13T07:14:27;12.70;;;3.55;;
25123;SDS011;13104;51.030;4.686;2023-03-13T07:16:54;10.13;;;3.03;;
25123;SDS011;13104;51.030;4.686;2023-03-13T07:19:22;14.75;;;3.53;;
25123;SDS011;13104;51.030;4.686;2023-03-13T07:21:48;22.70;;;4.20;;
25123;SDS011;13104;51.030;4.686;2023-03-13T07:24:17;12.88;;;3.53;;
25123;SDS011;13104;51.030;4.686;2023-03-13T07:26:43;10.63;;;3.50;;
25123;SDS011;13104;51.030;4.686;2023-03-13T07:29:09;10.35;;;3.13;;
25123;SDS011;13104;51.030;4.686;2023-03-13T07:31:35;14.43;;;3.25;;
25123;SDS011;13104;51.030;4.686;2023-03-13T07:34:03;9.57;;;3.05;;
25123;SDS011;13104;51.030;4.686;2023-03-13T07:36:29;10.35;;;3.60;;
25123;SDS011;13104;51.030;4.686;2023-03-13T07:38:55;11.05;;;3.17;;
25123;SDS011;13104;51.030;4.686;2023-03-13T07:41:22;16.88;;;4.18;;
25123;SDS011;13104;51.030;4.686;2023-03-13T07:43:48;12.38;;;3.50;;
25123;SDS011;13104;51.030;4.686;2023-03-13T07:46:15;13.52;;;3.63;;
25123;SDS011;13104;51.030;4.686;2023-03-13T07:48:48;13.85;;;4.20;;
25123;SDS011;13104;51.030;4.686;2023-03-13T07:51:24;18.23;;;3.55;;
25123;SDS011;13104;51.030;4.686;2023-03-13T07:53:50;12.52;;;4.35;;
25123;SDS011;13104;51.030;4.686;2023-03-13T07:56:18;8.48;;;3.33;;
25123;SDS011;13104;51.030;4.686;2023-03-13T07:58:45;13.02;;;3.53;;
25123;SDS011;13104;51.030;4.686;2023-03-13T08:01:13;12.65;;;2.90;;
25123;SDS011;13104;51.030;4.686;2023-03-13T08:03:40;7.35;;;3.13;;
25123;SDS011;13104;51.030;4.686;2023-03-13T08:06:11;11.27;;;3.40;;
25123;SDS011;13104;51.030;4.686;2023-03-13T08:08:37;11.25;;;2.95;;
25123;SDS011;13104;51.030;4.686;2023-03-13T08:11:08;9.05;;;2.95;;
25123;SDS011;13104;51.030;4.686;2023-03-13T08:13:35;12.95;;;3.35;;
25123;SDS011;13104;51.030;4.686;2023-03-13T08:16:11;11.52;;;2.88;;
25123;SDS011;13104;51.030;4.686;2023-03-13T08:18:39;10.57;;;3.20;;
25123;SDS011;13104;51.030;4.686;2023-03-13T08:21:06;10.02;;;3.00;;
25123;SDS011;13104;51.030;4.686;2023-03-13T08:23:33;11.98;;;3.15;;
25123;SDS011;13104;51.030;4.686;2023-03-13T08:26:03;8.25;;;2.50;;
25123;SDS011;13104;51.030;4.686;2023-03-13T08:28:29;6.40;;;2.53;;
25123;SDS011;13104;51.030;4.686;2023-03-13T08:30:55;8.50;;;2.88;;
25123;SDS011;13104;51.030;4.686;2023-03-13T08:33:22;6.45;;;3.33;;
25123;SDS011;13104;51.030;4.686;2023-03-13T08:35:48;9.73;;;3.58;;
25123;SDS011;13104;51.030;4.686;2023-03-13T08:38:14;8.80;;;3.15;;
25123;SDS011;13104;51.030;4.686;2023-03-13T08:40:40;6.32;;;2.95;;
25123;SDS011;13104;51.030;4.686;2023-03-13T08:43:07;6.45;;;2.67;;
25123;SDS011;13104;51.030;4.686;2023-03-13T08:45:33;5.75;;;2.85;;
25123;SDS011;13104;51.030;4.686;2023-03-13T08:47:59;7.45;;;2.72;;
25123;SDS011;13104;51.030;4.686;2023-03-13T08:50:25;9.00;;;3.00;;
25123;SDS011;13104;51.030;4.686;2023-03-13T08:52:51;7.75;;;3.25;;
25123;SDS011;13104;51.030;4.686;2023-03-13T08:55:17;11.15;;;2.97;;
25123;SDS011;13104;51.030;4.686;2023-03-13T08:57:43;10.73;;;2.50;;
25123;SDS011;13104;51.030;4.686;2023-03-13T09:00:10;10.40;;;2.78;;
25123;SDS011;13104;51.030;4.686;2023-03-13T09:02:37;8.73;;;2.78;;
25123;SDS011;13104;51.030;4.686;2023-03-13T09:05:03;6.82;;;2.80;;
25123;SDS011;13104;51.030;4.686;2023-03-13T09:07:30;7.00;;;2.45;;
25123;SDS011;13104;51.030;4.686;2023-03-13T09:09:56;9.82;;;2.90;;
25123;SDS011;13104;51.030;4.686;2023-03-13T09:12:22;7.20;;;2.70;;
25123;SDS011;13104;51.030;4.686;2023-03-13T09:14:49;9.88;;;2.63;;
25123;SDS011;13104;51.030;4.686;2023-03-13T09:17:15;7.32;;;2.50;;
25123;SDS011;13104;51.030;4.686;2023-03-13T09:19:41;8.70;;;2.97;;
25123;SDS011;13104;51.030;4.686;2023-03-13T09:22:07;6.13;;;2.53;;
25123;SDS011;13104;51.030;4.686;2023-03-13T09:24:34;6.30;;;2.78;;
25123;SDS011;13104;51.030;4.686;2023-03-13T09:27:00;10.25;;;3.05;;
25123;SDS011;13104;51.030;4.686;2023-03-13T09:29:26;6.80;;;2.70;;
25123;SDS011;13104;51.030;4.686;2023-03-13T09:31:52;5.90;;;2.08;;
25123;SDS011;13104;51.030;4.686;2023-03-13T09:34:18;8.80;;;2.85;;
25123;SDS011;13104;51.030;4.686;2023-03-13T09:36:44;12.02;;;2.90;;
25123;SDS011;13104;51.030;4.686;2023-03-13T09:39:10;8.10;;;2.22;;
25123;SDS011;13104;51.030;4.686;2023-03-13T09:44:21;5.88;;;2.08;;
25123;SDS011;13104;51.030;4.686;2023-03-13T09:49:37;7.03;;;2.13;;
25123;SDS011;13104;51.030;4.686;2023-03-13T09:54:48;6.45;;;2.05;;
25123;SDS011;13104;51.030;4.686;2023-03-13T09:57:18;6.80;;;1.95;;
25123;SDS011;13104;51.030;4.686;2023-03-13T09:59:50;5.80;;;1.77;;
25123;SDS011;13104;51.030;4.686;2023-03-13T10:02:20;3.92;;;2.08;;
25123;SDS011;13104;51.030;4.686;2023-03-13T10:04:51;8.45;;;2.33;;
25123;SDS011;13104;51.030;4.686;2023-03-13T10:07:18;3.60;;;1.63;;
25123;SDS011;13104;51.030;4.686;2023-03-13T10:09:45;5.55;;;1.73;;
25123;SDS011;13104;51.030;4.686;2023-03-13T10:14:42;6.70;;;1.80;;
25123;SDS011;13104;51.030;4.686;2023-03-13T10:17:12;4.65;;;1.75;;
25123;SDS011;13104;51.030;4.686;2023-03-13T10:19:40;4.15;;;1.92;;
25123;SDS011;13104;51.030;4.686;2023-03-13T10:22:17;6.00;;;2.08;;
25123;SDS011;13104;51.030;4.686;2023-03-13T10:27:19;2.83;;;1.70;;
25123;SDS011;13104;51.030;4.686;2023-03-13T10:29:45;4.43;;;2.03;;
25123;SDS011;13104;51.030;4.686;2023-03-13T10:32:12;3.72;;;1.63;;
25123;SDS011;13104;51.030;4.686;2023-03-13T10:37:16;3.45;;;1.75;;
25123;SDS011;13104;51.030;4.686;2023-03-13T10:39:44;6.13;;;1.77;;
25123;SDS011;13104;51.030;4.686;2023-03-13T10:42:17;4.32;;;1.67;;
25123;SDS011;13104;51.030;4.686;2023-03-13T10:44:45;3.42;;;1.50;;
25123;SDS011;13104;51.030;4.686;2023-03-13T10:47:12;8.27;;;1.70;;
25123;SDS011;13104;51.030;4.686;2023-03-13T10:49:46;5.53;;;1.70;;
25123;SDS011;13104;51.030;4.686;2023-03-13T10:52:26;5.05;;;2.10;;
25123;SDS011;13104;51.030;4.686;2023-03-13T10:54:55;8.30;;;3.80;;
25123;SDS011;13104;51.030;4.686;2023-03-13T10:59:50;6.88;;;1.88;;
25123;SDS011;13104;51.030;4.686;2023-03-13T11:02:26;4.80;;;1.75;;
25123;SDS011;13104;51.030;4.686;2023-03-13T11:04:53;7.15;;;1.73;;
25123;SDS011;13104;51.030;4.686;2023-03-13T11:12:34;5.65;;;2.03;;
25123;SDS011;13104;51.030;4.686;2023-03-13T11:15:01;5.20;;;1.55;;
25123;SDS011;13104;51.030;4.686;2023-03-13T11:19:58;6.40;;;1.63;;
25123;SDS011;13104;51.030;4.686;2023-03-13T11:22:33;7.85;;;1.75;;
25123;SDS011;13104;51.030;4.686;2023-03-13T11:25:12;5.90;;;1.75;;
25123;SDS011;13104;51.030;4.686;2023-03-13T11:28:32;9.88;;;2.22;;
25123;SDS011;13104;51.030;4.686;2023-03-13T11:33:00;7.38;;;1.70;;
25123;SDS011;13104;51.030;4.686;2023-03-13T11:35:46;7.60;;;1.70;;
25123;SDS011;13104;51.030;4.686;2023-03-13T11:38:18;5.53;;;1.80;;
25123;SDS011;13104;51.030;4.686;2023-03-13T11:48:47;4.93;;;1.63;;
25123;SDS011;13104;51.030;4.686;2023-03-13T11:54:22;4.18;;;1.20;;
25123;SDS011;13104;51.030;4.686;2023-03-13T12:01:49;8.25;;;1.92;;
25123;SDS011;13104;51.030;4.686;2023-03-13T12:06:48;3.17;;;1.30;;
25123;SDS011;13104;51.030;4.686;2023-03-13T12:11:46;4.35;;;1.52;;
25123;SDS011;13104;51.030;4.686;2023-03-13T12:14:20;3.72;;;1.50;;
25123;SDS011;13104;51.030;4.686;2023-03-13T12:16:55;3.30;;;1.30;;
25123;SDS011;13104;51.030;4.686;2023-03-13T12:19:25;5.82;;;1.30;;
25123;SDS011;13104;51.030;4.686;2023-03-13T12:21:53;2.50;;;1.30;;
25123;SDS011;13104;51.030;4.686;2023-03-13T12:24:28;6.97;;;1.45;;
25123;SDS011;13104;51.030;4.686;2023-03-13T12:29:45;5.03;;;1.45;;
25123;SDS011;13104;51.030;4.686;2023-03-13T12:35:33;5.93;;;1.55;;
25123;SDS011;13104;51.030;4.686;2023-03-13T12:37:43;6.75;;;1.75;;
25123;SDS011;13104;51.030;4.686;2023-03-13T12:42:42;5.20;;;1.30;;
25123;SDS011;13104;51.030;4.686;2023-03-13T12:45:16;2.83;;;1.20;;
25123;SDS011;13104;51.030;4.686;2023-03-13T12:51:29;3.33;;;1.63;;
25123;SDS011;13104;51.030;4.686;2023-03-13T13:00:55;4.32;;;1.60;;
25123;SDS011;13104;51.030;4.686;2023-03-13T13:03:25;4.65;;;1.48;;
25123;SDS011;13104;51.030;4.686;2023-03-13T13:06:12;5.40;;;1.63;;
25123;SDS011;13104;51.030;4.686;2023-03-13T13:08:40;4.80;;;1.23;;
25123;SDS011;13104;51.030;4.686;2023-03-13T13:13:52;5.55;;;1.30;;
25123;SDS011;13104;51.030;4.686;2023-03-13T13:16:19;4.30;;;1.40;;
25123;SDS011;13104;51.030;4.686;2023-03-13T13:18:46;3.25;;;0.90;;
25123;SDS011;13104;51.030;4.686;2023-03-13T13:23:45;5.80;;;1.50;;
25123;SDS011;13104;51.030;4.686;2023-03-13T13:36:57;5.90;;;1.63;;
25123;SDS011;13104;51.030;4.686;2023-03-13T13:41:59;3.50;;;1.40;;
25123;SDS011;13104;51.030;4.686;2023-03-13T13:44:27;5.38;;;1.35;;
25123;SDS011;13104;51.030;4.686;2023-03-13T13:46:55;5.00;;;1.48;;
25123;SDS011;13104;51.030;4.686;2023-03-13T13:49:25;5.72;;;1.50;;
25123;SDS011;13104;51.030;4.686;2023-03-13T13:56:55;6.45;;;1.45;;
25123;SDS011;13104;51.030;4.686;2023-03-13T14:01:50;3.15;;;1.20;;
25123;SDS011;13104;51.030;4.686;2023-03-13T14:04:26;5.78;;;1.55;;
25123;SDS011;13104;51.030;4.686;2023-03-13T14:06:52;7.00;;;1.90;;
25123;SDS011;13104;51.030;4.686;2023-03-13T14:11:50;5.90;;;1.65;;
25123;SDS011;13104;51.030;4.686;2023-03-13T14:14:17;7.10;;;1.98;;
25123;SDS011;13104;51.030;4.686;2023-03-13T14:16:53;5.38;;;2.03;;
25123;SDS011;13104;51.030;4.686;2023-03-13T14:19:36;5.20;;;1.48;;
25123;SDS011;13104;51.030;4.686;2023-03-13T14:22:06;8.32;;;2.10;;
25123;SDS011;13104;51.030;4.686;2023-03-13T14:24:32;8.25;;;2.10;;
25123;SDS011;13104;51.030;4.686;2023-03-13T14:26:59;11.00;;;1.70;;
25123;SDS011;13104;51.030;4.686;2023-03-13T14:29:25;5.40;;;1.73;;
25123;SDS011;13104;51.030;4.686;2023-03-13T14:31:52;4.22;;;1.58;;
25123;SDS011;13104;51.030;4.686;2023-03-13T14:34:19;6.78;;;1.80;;
25123;SDS011;13104;51.030;4.686;2023-03-13T14:39:16;6.03;;;1.80;;
25123;SDS011;13104;51.030;4.686;2023-03-13T14:41:45;13.00;;;2.17;;
25123;SDS011;13104;51.030;4.686;2023-03-13T14:44:19;9.05;;;2.05;;
25123;SDS011;13104;51.030;4.686;2023-03-13T14:46:47;5.95;;;1.67;;
25123;SDS011;13104;51.030;4.686;2023-03-13T14:49:20;6.38;;;1.70;;
25123;SDS011;13104;51.030;4.686;2023-03-13T14:51:55;4.63;;;1.75;;
25123;SDS011;13104;51.030;4.686;2023-03-13T14:57:01;4.78;;;1.67;;
25123;SDS011;13104;51.030;4.686;2023-03-13T14:59:27;10.02;;;1.88;;
25123;SDS011;13104;51.030;4.686;2023-03-13T15:02:00;6.47;;;1.63;;
25123;SDS011;13104;51.030;4.686;2023-03-13T15:07:12;6.90;;;2.10;;
25123;SDS011;13104;51.030;4.686;2023-03-13T15:09:42;9.32;;;2.00;;
25123;SDS011;13104;51.030;4.686;2023-03-13T15:12:13;5.65;;;1.70;;
25123;SDS011;13104;51.030;4.686;2023-03-13T15:14:40;7.90;;;1.95;;
25123;SDS011;13104;51.030;4.686;2023-03-13T15:19:39;8.75;;;1.90;;
25123;SDS011;13104;51.030;4.686;2023-03-13T15:22:08;13.48;;;2.28;;
25123;SDS011;13104;51.030;4.686;2023-03-13T15:24:35;11.10;;;2.05;;
25123;SDS011;13104;51.030;4.686;2023-03-13T15:27:01;6.72;;;1.95;;
25123;SDS011;13104;51.030;4.686;2023-03-13T15:29:27;9.52;;;2.10;;
25123;SDS011;13104;51.030;4.686;2023-03-13T15:31:53;9.82;;;2.53;;
25123;SDS011;13104;51.030;4.686;2023-03-13T15:34:19;10.48;;;2.25;;
25123;SDS011;13104;51.030;4.686;2023-03-13T15:36:49;9.75;;;2.40;;
25123;SDS011;13104;51.030;4.686;2023-03-13T15:39:15;10.75;;;2.05;;
25123;SDS011;13104;51.030;4.686;2023-03-13T15:41:44;8.48;;;1.67;;
25123;SDS011;13104;51.030;4.686;2023-03-13T15:44:10;5.93;;;2.20;;
25123;SDS011;13104;51.030;4.686;2023-03-13T15:46:36;9.55;;;2.05;;
25123;SDS011;13104;51.030;4.686;2023-03-13T15:49:02;8.18;;;1.80;;
25123;SDS011;13104;51.030;4.686;2023-03-13T15:51:29;9.63;;;2.10;;
25123;SDS011;13104;51.030;4.686;2023-03-13T15:53:55;8.27;;;1.95;;
25123;SDS011;13104;51.030;4.686;2023-03-13T15:56:21;5.50;;;2.00;;
25123;SDS011;13104;51.030;4.686;2023-03-13T15:58:48;11.43;;;1.92;;
25123;SDS011;13104;51.030;4.686;2023-03-13T16:01:15;6.53;;;1.90;;
25123;SDS011;13104;51.030;4.686;2023-03-13T16:03:42;8.38;;;2.00;;
25123;SDS011;13104;51.030;4.686;2023-03-13T16:06:10;10.15;;;2.05;;
25123;SDS011;13104;51.030;4.686;2023-03-13T16:08:38;11.98;;;2.40;;
25123;SDS011;13104;51.030;4.686;2023-03-13T16:11:04;6.88;;;2.20;;
25123;SDS011;13104;51.030;4.686;2023-03-13T16:13:30;6.35;;;1.85;;
25123;SDS011;13104;51.030;4.686;2023-03-13T16:15:57;10.23;;;2.28;;
25123;SDS011;13104;51.030;4.686;2023-03-13T16:18:23;10.23;;;2.17;;
25123;SDS011;13104;51.030;4.686;2023-03-13T16:20:50;10.60;;;3.05;;
25123;SDS011;13104;51.030;4.686;2023-03-13T16:23:17;13.43;;;3.67;;
25123;SDS011;13104;51.030;4.686;2023-03-13T16:25:43;14.07;;;2.78;;
25123;SDS011;13104;51.030;4.686;2023-03-13T16:28:11;7.80;;;2.60;;
25123;SDS011;13104;51.030;4.686;2023-03-13T16:30:37;11.25;;;2.15;;
25123;SDS011;13104;51.030;4.686;2023-03-13T16:33:05;13.60;;;2.40;;
25123;SDS011;13104;51.030;4.686;2023-03-13T16:35:32;10.23;;;2.40;;
25123;SDS011;13104;51.030;4.686;2023-03-13T16:37:58;8.23;;;2.20;;
25123;SDS011;13104;51.030;4.686;2023-03-13T16:40:26;7.70;;;2.13;;
25123;SDS011;13104;51.030;4.686;2023-03-13T16:42:52;10.90;;;2.35;;